Time;durP1;ratioP1;P1;durP2;ratioP2;P2;SDS_P1;SDS_P2;PMS_P1;PMS_P2;Temp;Humidity;BMP_temperature;BMP_pressure;BME280_temperature;BME280_humidity;BME280_pressure;Samples;Min_cycle;Max_cycle;Signal;HPM_P1;HPM_P2
2024/02/19 00:01:07;;;;;;;44.00;18.97;;;-0.50;1.00;;;;;;4407299;28;659791;-75
2024/02/19 00:03:56;;;;;;;45.73;19.60;;;-0.50;1.00;;;;;;4413839;28;659974;-75
2024/02/19 00:06:43;;;;;;;52.30;21.83;;;-0.50;93.50;;;;;;4405496;28;659463;-75
2024/02/19 00:09:30;;;;;;;47.37;20.63;;;-0.40;98.60;;;;;;4414981;28;661757;-75
2024/02/19 00:12:18;;;;;;;45.80;20.47;;;-0.40;28.00;;;;;;4407020;28;660761;-75
2024/02/19 00:15:07;;;;;;;45.97;19.90;;;-0.50;1.00;;;;;;4431268;28;661418;-75
2024/02/19 00:17:54;;;;;;;51.93;20.70;;;-0.40;40.00;;;;;;4407237;28;660239;-75
2024/02/19 00:20:43;;;;;;;60.37;22.90;;;-0.40;44.20;;;;;;4427798;28;661035;-75
2024/02/19 00:23:33;;;;;;;58.07;22.23;;;-0.40;40.60;;;;;;4411692;28;660997;-75
2024/02/19 00:26:21;;;;;;;59.33;22.55;;;-0.40;1.00;;;;;;4408298;28;661628;-75
2024/02/19 00:29:08;;;;;;;52.67;21.93;;;-0.40;1.00;;;;;;4407967;28;659754;-75
2024/02/19 00:31:55;;;;;;;65.13;22.23;;;-0.40;1.00;;;;;;4438473;28;660229;-75
2024/02/19 00:34:43;;;;;;;52.65;21.38;;;-0.40;1.00;;;;;;4418002;28;660343;-75
2024/02/19 00:37:31;;;;;;;54.73;21.60;;;-0.40;1.00;;;;;;4421054;28;659848;-75
2024/02/19 00:40:19;;;;;;;50.03;20.73;;;-0.40;1.00;;;;;;4408126;28;660221;-75
2024/02/19 00:43:06;;;;;;;56.03;23.43;;;-0.40;1.00;;;;;;4439478;28;659532;-75
2024/02/19 00:45:53;;;;;;;52.77;23.10;;;-0.50;1.00;;;;;;4409563;28;659810;-75
2024/02/19 00:48:40;;;;;;;50.90;21.17;;;-0.50;1.00;;;;;;4437993;28;660907;-75
2024/02/19 00:51:28;;;;;;;52.13;20.83;;;-0.50;1.00;;;;;;4408721;28;660147;-76
2024/02/19 00:54:16;;;;;;;47.63;20.80;;;-0.50;1.00;;;;;;4430519;28;660041;-75
2024/02/19 00:57:04;;;;;;;45.77;19.80;;;-0.50;1.00;;;;;;4404118;28;659834;-75
2024/02/19 00:59:52;;;;;;;53.67;22.03;;;-0.50;1.00;;;;;;4430600;28;660069;-75
2024/02/19 01:02:40;;;;;;;49.43;22.23;;;-0.60;1.00;;;;;;4410257;28;660023;-75
2024/02/19 01:05:27;;;;;;;53.35;23.48;;;-0.60;1.00;;;;;;4408632;28;659966;-76
2024/02/19 01:08:15;;;;;;;53.57;23.37;;;-0.60;1.00;;;;;;4419871;28;660064;-75
2024/02/19 01:11:04;;;;;;;57.73;23.97;;;-0.70;1.00;;;;;;4423930;28;659676;-75
2024/02/19 01:13:51;;;;;;;57.03;23.63;;;-0.70;52.50;;;;;;4430223;28;659326;-75
2024/02/19 01:16:38;;;;;;;49.85;21.65;;;-0.70;95.30;;;;;;4407912;28;660820;-75
2024/02/19 01:19:26;;;;;;;50.97;21.77;;;-0.70;1.00;;;;;;4423278;28;660915;-76
2024/02/19 01:22:13;;;;;;;54.03;24.23;;;-0.70;1.00;;;;;;4411292;28;659625;-75
2024/02/19 01:25:01;;;;;;;66.45;24.63;;;-0.70;1.00;;;;;;4428915;28;660082;-75
2024/02/19 01:27:49;;;;;;;51.70;22.57;;;-0.80;99.90;;;;;;4413980;28;659620;-76
2024/02/19 01:30:37;;;;;;;50.97;21.50;;;-0.80;99.90;;;;;;4439498;28;660505;-75
2024/02/19 01:33:24;;;;;;;45.03;19.83;;;-0.80;99.90;;;;;;4420338;28;660765;-76
2024/02/19 01:36:12;;;;;;;46.13;19.83;;;-0.80;99.90;;;;;;4430042;28;660575;-75
2024/02/19 01:38:59;;;;;;;43.43;20.00;;;-0.80;99.90;;;;;;4402088;28;661531;-75
2024/02/19 01:41:46;;;;;;;45.20;20.67;;;-0.90;99.90;;;;;;4425237;28;662209;-76
2024/02/19 01:44:36;;;;;;;49.88;22.50;;;-0.90;99.90;;;;;;4409037;28;660785;-75
2024/02/19 01:47:23;;;;;;;46.47;20.17;;;-0.90;99.90;;;;;;4399108;28;661236;-75
2024/02/19 01:50:11;;;;;;;45.53;20.67;;;-0.90;1.00;;;;;;4430329;28;661000;-75
2024/02/19 01:53:00;;;;;;;50.00;21.70;;;-1.00;99.90;;;;;;4409830;28;659685;-75
2024/02/19 01:55:48;;;;;;;47.23;21.23;;;-1.10;99.90;;;;;;4418166;28;661115;-75
2024/02/19 01:58:35;;;;;;;51.53;21.80;;;-1.10;99.90;;;;;;4434941;28;660903;-76
2024/02/19 02:01:24;;;;;;;56.93;23.13;;;-1.10;99.90;;;;;;4415448;28;661051;-75
2024/02/19 02:04:11;;;;;;;54.60;22.13;;;-1.20;99.90;;;;;;4427767;28;660526;-75
2024/02/19 02:06:59;;;;;;;51.77;21.40;;;-1.20;99.90;;;;;;4403095;28;660805;-75
2024/02/19 02:09:46;;;;;;;54.10;23.17;;;-1.30;99.90;;;;;;4419967;28;661308;-75
2024/02/19 02:12:33;;;;;;;55.70;23.57;;;-1.30;99.90;;;;;;4407550;28;660868;-75
2024/02/19 02:15:21;;;;;;;56.53;24.33;;;-1.30;1.00;;;;;;4430455;28;661995;-75
2024/02/19 02:18:11;;;;;;;54.90;23.20;;;-1.30;1.00;;;;;;4412066;28;659179;-76
2024/02/19 02:20:58;;;;;;;55.87;24.80;;;-1.20;1.00;;;;;;4420602;28;659847;-75
2024/02/19 02:23:46;;;;;;;54.33;24.45;;;-1.20;1.00;;;;;;4434851;28;660916;-76
2024/02/19 02:26:40;;;;;;;53.60;22.80;;;-1.20;1.00;;;;;;4408658;28;659333;-76
2024/02/19 02:29:27;;;;;;;55.47;23.73;;;-1.20;1.00;;;;;;4407757;28;660063;-75
2024/02/19 02:32:15;;;;;;;52.17;22.53;;;-1.10;1.00;;;;;;4433052;28;659675;-76
2024/02/19 02:35:03;;;;;;;54.13;22.63;;;-1.00;1.00;;;;;;4432247;28;659389;-75
2024/02/19 02:37:50;;;;;;;55.87;22.33;;;-0.90;1.00;;;;;;4431962;28;660092;-75
2024/02/19 02:40:37;;;;;;;54.60;21.97;;;-0.80;1.00;;;;;;4425103;28;659827;-75
2024/02/19 02:43:27;;;;;;;51.60;21.90;;;-0.70;1.00;;;;;;4431624;28;660471;-76
2024/02/19 02:46:14;;;;;;;52.03;21.40;;;-0.60;1.00;;;;;;4410323;28;661048;-76
2024/02/19 02:49:01;;;;;;;54.63;22.40;;;-0.60;1.00;;;;;;4434281;28;660550;-76
2024/02/19 02:51:48;;;;;;;50.80;20.90;;;-0.50;1.00;;;;;;4411932;28;659363;-75
2024/02/19 02:54:37;;;;;;;50.93;21.53;;;-0.50;1.00;;;;;;4416162;28;659553;-76
2024/02/19 02:57:24;;;;;;;51.10;22.93;;;-0.40;99.90;;;;;;4412344;28;659892;-75
2024/02/19 03:00:13;;;;;;;48.90;22.17;;;-0.40;99.90;;;;;;4426332;28;660835;-76
2024/02/19 03:03:00;;;;;;;54.90;23.50;;;-0.40;99.90;;;;;;4392303;28;661657;-76
2024/02/19 03:05:48;;;;;;;50.57;22.10;;;-0.40;99.90;;;;;;4411392;28;661227;-76
2024/02/19 03:08:35;;;;;;;52.70;21.93;;;-0.40;99.90;;;;;;4433815;28;660991;-75
2024/02/19 03:11:23;;;;;;;55.47;23.97;;;-0.40;99.90;;;;;;4416406;28;660758;-75
2024/02/19 03:14:13;;;;;;;43.87;21.27;;;-0.40;99.90;;;;;;4426459;28;662620;-76
2024/02/19 03:17:02;;;;;;;46.40;19.83;;;-0.30;99.90;;;;;;4403384;28;661282;-76
2024/02/19 03:19:50;;;;;;;47.90;20.47;;;-0.30;99.90;;;;;;4406300;28;661886;-76
2024/02/19 03:22:38;;;;;;;44.90;21.33;;;-0.20;99.90;;;;;;4420068;28;660386;-76
2024/02/19 03:25:25;;;;;;;49.80;20.77;;;-0.20;99.90;;;;;;4427298;28;662248;-76
2024/02/19 03:28:13;;;;;;;54.97;20.37;;;-0.20;99.90;;;;;;4401002;28;660709;-76
2024/02/19 03:31:00;;;;;;;53.97;19.87;;;-0.10;99.90;;;;;;4425239;28;661472;-76
2024/02/19 03:33:49;;;;;;;54.23;23.03;;;-0.10;56.20;;;;;;4426688;28;660976;-75
2024/02/19 03:36:36;;;;;;;48.10;20.67;;;0.00;1.00;;;;;;4424772;28;660876;-76
2024/02/19 03:39:23;;;;;;;49.77;20.73;;;0.00;1.00;;;;;;4397737;28;659083;-76
2024/02/19 03:42:10;;;;;;;47.87;20.63;;;0.10;1.00;;;;;;4436831;28;659545;-75
2024/02/19 03:44:58;;;;;;;44.60;19.57;;;0.20;1.00;;;;;;4399455;28;658891;-76
2024/02/19 03:47:45;;;;;;;46.47;19.40;;;0.30;1.00;;;;;;4432569;28;659967;-76
2024/02/19 03:50:34;;;;;;;53.10;19.70;;;0.30;1.00;;;;;;4411209;28;658760;-76
2024/02/19 03:53:21;;;;;;;43.50;19.42;;;0.40;1.00;;;;;;4430538;28;658460;-75
2024/02/19 03:56:08;;;;;;;44.80;20.30;;;0.50;1.00;;;;;;4409291;28;658535;-75
2024/02/19 03:58:56;;;;;;;45.87;19.53;;;0.60;99.90;;;;;;4411568;28;658767;-76
2024/02/19 04:01:43;;;;;;;41.07;18.57;;;0.70;99.90;;;;;;4411878;28;659985;-75
2024/02/19 04:04:30;;;;;;;41.03;18.47;;;0.70;99.90;;;;;;4434529;28;660184;-75
2024/02/19 04:07:19;;;;;;;42.27;18.10;;;0.80;99.90;;;;;;4413774;28;659477;-75
2024/02/19 04:10:07;;;;;;;40.27;17.90;;;0.80;76.20;;;;;;4430846;28;659729;-75
2024/02/19 04:12:54;;;;;;;41.73;18.43;;;0.80;47.40;;;;;;4401307;28;661015;-76
2024/02/19 04:15:42;;;;;;;36.53;16.23;;;0.90;45.40;;;;;;4433173;28;658955;-74
2024/02/19 04:18:29;;;;;;;43.53;18.53;;;0.90;99.90;;;;;;4414929;28;660135;-74
2024/02/19 04:21:16;;;;;;;44.73;19.70;;;0.90;99.90;;;;;;4420858;28;660599;-74
2024/02/19 04:24:05;;;;;;;50.80;20.17;;;0.90;67.90;;;;;;4407137;28;660383;-75
2024/02/19 04:26:53;;;;;;;47.90;18.25;;;1.00;38.20;;;;;;4404235;28;659539;-75
2024/02/19 04:29:40;;;;;;;45.37;18.77;;;1.00;1.00;;;;;;4430512;28;661681;-75
2024/02/19 04:32:27;;;;;;;48.03;20.40;;;1.00;1.00;;;;;;4403329;28;659391;-74
2024/02/19 04:35:15;;;;;;;48.90;19.97;;;1.00;1.00;;;;;;4436145;28;658601;-75
2024/02/19 04:38:02;;;;;;;50.20;19.53;;;1.10;1.00;;;;;;4429807;28;658350;-75
2024/02/19 04:40:51;;;;;;;41.20;18.23;;;1.10;1.00;;;;;;4429255;28;659274;-75
2024/02/19 04:43:38;;;;;;;40.77;18.00;;;1.10;1.00;;;;;;4407899;28;659403;-74
2024/02/19 04:46:25;;;;;;;41.28;17.50;;;1.20;1.00;;;;;;4437968;28;659393;-74
2024/02/19 04:49:13;;;;;;;40.63;18.30;;;1.10;99.90;;;;;;4412088;28;659272;-74
2024/02/19 04:52:00;;;;;;;37.60;17.00;;;1.20;99.90;;;;;;4434743;28;660073;-74
2024/02/19 04:54:47;;;;;;;40.10;17.30;;;1.20;99.90;;;;;;4410842;28;659964;-74
2024/02/19 04:57:36;;;;;;;38.57;16.77;;;1.30;99.90;;;;;;4428199;28;660816;-74
2024/02/19 05:00:23;;;;;;;36.37;17.20;;;1.20;99.90;;;;;;4406794;28;659349;-74
2024/02/19 05:03:11;;;;;;;38.50;17.35;;;1.20;99.90;;;;;;4429745;28;660057;-74
2024/02/19 05:05:58;;;;;;;37.50;16.70;;;1.20;99.90;;;;;;4414571;28;659426;-74
2024/02/19 05:08:45;;;;;;;37.73;17.17;;;1.20;99.90;;;;;;4421264;28;660291;-74
2024/02/19 05:11:32;;;;;;;34.23;16.60;;;1.20;99.90;;;;;;4414897;28;659965;-74
2024/02/19 05:14:21;;;;;;;30.27;14.00;;;1.20;99.90;;;;;;4435515;28;660372;-74
2024/02/19 05:17:09;;;;;;;41.60;18.03;;;1.30;99.90;;;;;;4404542;28;660133;-74
2024/02/19 05:19:56;;;;;;;33.30;15.23;;;1.30;99.90;;;;;;4434468;28;659754;-74
2024/02/19 05:22:44;;;;;;;34.33;15.20;;;1.40;99.90;;;;;;4412299;28;660082;-74
2024/02/19 05:25:31;;;;;;;37.47;15.77;;;1.40;99.90;;;;;;4426069;28;659585;-74
2024/02/19 05:28:18;;;;;;;29.07;14.17;;;1.50;99.90;;;;;;4414416;28;659834;-74
2024/02/19 05:31:07;;;;;;;36.20;15.37;;;1.40;1.00;;;;;;4433201;28;659812;-74
2024/02/19 05:33:54;;;;;;;42.70;14.77;;;1.40;1.00;;;;;;4414268;28;659157;-74
2024/02/19 05:36:41;;;;;;;35.73;16.73;;;1.30;1.00;;;;;;4440741;28;658871;-74
2024/02/19 05:39:29;;;;;;;35.53;16.20;;;1.30;1.00;;;;;;4402475;28;658559;-74
2024/02/19 05:42:16;;;;;;;34.03;16.60;;;1.40;1.00;;;;;;4435081;28;658767;-74
2024/02/19 05:45:04;;;;;;;38.37;15.70;;;1.50;1.00;;;;;;4405189;28;659280;-74
2024/02/19 05:47:52;;;;;;;38.63;16.70;;;1.60;1.00;;;;;;4430082;28;659151;-74
2024/02/19 05:50:40;;;;;;;36.00;15.88;;;1.60;1.00;;;;;;4409362;28;658719;-74
2024/02/19 05:53:27;;;;;;;36.57;16.77;;;1.60;1.00;;;;;;4421605;28;658295;-74
2024/02/19 05:56:14;;;;;;;37.20;16.70;;;1.70;99.90;;;;;;4417246;28;659362;-74
2024/02/19 05:59:01;;;;;;;37.43;16.17;;;1.70;1.00;;;;;;4419633;28;659604;-73
2024/02/19 06:01:49;;;;;;;39.23;17.70;;;1.70;1.00;;;;;;4406394;28;658714;-73
2024/02/19 06:04:37;;;;;;;37.33;16.90;;;1.80;1.00;;;;;;4432509;28;658626;-73
2024/02/19 06:07:25;;;;;;;39.27;15.93;;;1.70;1.00;;;;;;4398458;28;660361;-73
2024/02/19 06:10:13;;;;;;;33.60;16.33;;;1.70;1.00;;;;;;4414468;28;658726;-73
2024/02/19 06:13:00;;;;;;;39.40;17.83;;;1.80;1.00;;;;;;4433611;28;659810;-74
2024/02/19 06:15:47;;;;;;;35.23;16.33;;;1.90;1.00;;;;;;4423120;28;658369;-73
2024/02/19 06:18:35;;;;;;;34.70;16.03;;;1.80;1.00;;;;;;4438144;28;659519;-73
2024/02/19 06:21:24;;;;;;;32.63;14.90;;;2.00;1.00;;;;;;4424286;28;659562;-73
2024/02/19 06:24:11;;;;;;;32.70;14.37;;;2.00;1.00;;;;;;4420017;28;658468;-74
2024/02/19 06:26:58;;;;;;;37.97;16.17;;;2.00;1.00;;;;;;4420994;28;659004;-73
2024/02/19 06:29:47;;;;;;;31.40;14.30;;;1.90;1.00;;;;;;4440258;28;659462;-73
2024/02/19 06:32:34;;;;;;;39.60;17.93;;;1.80;1.00;;;;;;4412007;28;658451;-73
2024/02/19 06:35:22;;;;;;;30.17;13.67;;;1.90;78.00;;;;;;4431043;28;658554;-73
2024/02/19 06:38:10;;;;;;;36.07;16.07;;;1.90;99.90;;;;;;4408210;28;660814;-73
2024/02/19 06:40:58;;;;;;;35.87;15.93;;;1.90;1.00;;;;;;4405154;28;660036;-73
2024/02/19 06:43:45;;;;;;;41.87;17.83;;;1.90;1.00;;;;;;4426249;28;659787;-73
2024/02/19 06:46:32;;;;;;;40.70;18.30;;;2.00;1.00;;;;;;4415114;28;659066;-73
2024/02/19 06:49:22;;;;;;;34.13;16.00;;;1.80;1.00;;;;;;4422260;28;659623;-74
2024/02/19 06:52:09;;;;;;;37.13;15.40;;;1.90;39.60;;;;;;4414896;28;658377;-73
2024/02/19 06:54:58;;;;;;;37.50;16.33;;;2.00;99.90;;;;;;4434298;28;659785;-73
2024/02/19 06:57:45;;;;;;;32.20;15.83;;;2.00;1.00;;;;;;4404183;28;660845;-73
2024/02/19 07:00:32;;;;;;;32.43;14.57;;;2.00;1.00;;;;;;4423010;28;658967;-74
2024/02/19 07:03:20;;;;;;;28.33;14.23;;;1.90;1.00;;;;;;4434224;28;660007;-73
2024/02/19 07:06:07;;;;;;;40.53;16.97;;;2.10;99.90;;;;;;4418484;28;659024;-73
2024/02/19 07:08:55;;;;;;;36.20;16.57;;;2.10;99.90;;;;;;4434213;28;660678;-74
2024/02/19 07:11:44;;;;;;;43.23;18.13;;;2.10;1.00;;;;;;4404572;28;659702;-73
2024/02/19 07:14:31;;;;;;;48.67;20.40;;;2.10;99.90;;;;;;4431711;28;658509;-73
2024/02/19 07:17:18;;;;;;;52.10;24.27;;;2.10;99.90;;;;;;4412197;28;659730;-73
2024/02/19 07:20:07;;;;;;;57.57;25.30;;;2.20;1.00;;;;;;4436482;28;659761;-73
2024/02/19 07:22:55;;;;;;;48.60;21.03;;;2.30;99.90;;;;;;4401247;28;659504;-73
2024/02/19 07:25:42;;;;;;;47.40;21.37;;;2.20;99.90;;;;;;4416869;28;660299;-74
2024/02/19 07:28:31;;;;;;;46.33;20.77;;;2.30;99.90;;;;;;4425105;28;660756;-73
2024/02/19 07:31:18;;;;;;;49.70;22.00;;;2.40;1.00;;;;;;4412213;28;660646;-73
2024/02/19 07:34:07;;;;;;;43.50;20.63;;;2.50;99.90;;;;;;4428555;28;659762;-73
2024/02/19 07:36:54;;;;;;;49.60;21.90;;;2.50;99.90;;;;;;4411575;28;660256;-73
2024/02/19 07:39:41;;;;;;;46.93;21.33;;;2.50;1.00;;;;;;4437089;28;659817;-73
2024/02/19 07:42:29;;;;;;;44.87;21.83;;;2.70;1.00;;;;;;4409210;28;658582;-73
2024/02/19 07:45:17;;;;;;;51.93;22.73;;;2.80;1.00;;;;;;4417589;28;658479;-73
2024/02/19 07:48:06;;;;;;;47.53;22.33;;;2.80;1.00;;;;;;4413261;28;659104;-73
2024/02/19 07:50:53;;;;;;;45.37;21.47;;;2.80;48.90;;;;;;4414618;28;659192;-73
2024/02/19 07:53:40;;;;;;;45.10;22.10;;;2.90;93.90;;;;;;4432004;28;661486;-73
2024/02/19 07:56:27;;;;;;;48.03;23.53;;;3.10;99.90;;;;;;4411073;28;660534;-73
2024/02/19 07:59:15;;;;;;;43.50;22.17;;;3.20;4.40;;;;;;4417010;28;660860;-73
2024/02/19 08:02:05;;;;;;;44.40;21.97;;;3.20;1.00;;;;;;4422784;28;658882;-73
2024/02/19 08:04:52;;;;;;;47.93;23.07;;;3.40;1.00;;;;;;4411130;28;659049;-72
2024/02/19 08:07:40;;;;;;;47.83;22.77;;;3.50;1.00;;;;;;4427850;28;660299;-71
2024/02/19 08:10:27;;;;;;;42.50;21.90;;;3.60;1.00;;;;;;4427300;28;658244;-72
2024/02/19 08:13:15;;;;;;;47.40;22.40;;;3.80;1.00;;;;;;4437010;28;659449;-72
2024/02/19 08:16:02;;;;;;;46.27;22.70;;;3.80;1.00;;;;;;4425196;28;658682;-73
2024/02/19 08:18:52;;;;;;;49.63;24.60;;;3.90;99.90;;;;;;4416690;28;659992;-72
2024/02/19 08:21:41;;;;;;;55.50;26.37;;;4.00;99.90;;;;;;4395008;28;661095;-72
2024/02/19 08:24:28;;;;;;;53.53;25.23;;;4.00;99.90;;;;;;4407383;28;660144;-72
2024/02/19 08:27:15;;;;;;;64.07;28.53;;;4.00;99.90;;;;;;4423607;28;659738;-72
2024/02/19 08:30:03;;;;;;;57.47;27.20;;;4.00;99.90;;;;;;4410853;28;659794;-73
2024/02/19 08:32:50;;;;;;;57.53;27.93;;;4.00;99.90;;;;;;4436433;28;659715;-72
2024/02/19 08:35:39;;;;;;;53.50;27.23;;;3.90;99.90;;;;;;4417517;28;659503;-73
2024/02/19 08:38:27;;;;;;;65.17;30.60;;;3.90;99.90;;;;;;4433240;28;659236;-72
2024/02/19 08:41:14;;;;;;;71.27;32.47;;;4.00;99.90;;;;;;4409158;28;661056;-72
2024/02/19 08:44:02;;;;;;;91.37;38.50;;;4.00;97.70;;;;;;4444501;28;659203;-73
2024/02/19 08:46:49;;;;;;;92.83;37.53;;;4.10;99.90;;;;;;4411773;28;659835;-73
2024/02/19 08:49:37;;;;;;;80.50;36.43;;;4.10;99.90;;;;;;4421346;28;659373;-72
2024/02/19 08:52:26;;;;;;;73.17;36.07;;;4.10;99.90;;;;;;4397659;28;661084;-72
2024/02/19 08:55:13;;;;;;;73.27;35.20;;;4.00;1.00;;;;;;4413956;28;659527;-73
2024/02/19 08:58:00;;;;;;;69.63;32.37;;;4.10;1.00;;;;;;4436024;28;658874;-73
2024/02/19 09:00:47;;;;;;;71.72;35.08;;;4.10;12.80;;;;;;4407713;28;658900;-73
2024/02/19 09:03:35;;;;;;;79.53;38.20;;;4.20;99.90;;;;;;4424205;28;660776;-73
2024/02/19 09:06:22;;;;;;;79.97;38.23;;;4.20;1.00;;;;;;4429759;28;659897;-72
2024/02/19 09:09:11;;;;;;;76.60;38.70;;;4.20;1.00;;;;;;4427842;28;659042;-73
2024/02/19 09:11:58;;;;;;;151.97;52.87;;;4.20;99.90;;;;;;4411419;28;658525;-73
2024/02/19 09:14:45;;;;;;;85.30;37.57;;;4.20;1.00;;;;;;4434822;28;661376;-73
2024/02/19 09:17:33;;;;;;;82.13;36.47;;;4.20;1.00;;;;;;4410525;28;659394;-73
2024/02/19 09:20:20;;;;;;;78.10;38.17;;;4.30;1.00;;;;;;4436783;28;659449;-73
2024/02/19 09:23:07;;;;;;;77.23;36.13;;;4.40;99.90;;;;;;4426663;28;658625;-73
2024/02/19 09:25:56;;;;;;;84.07;38.73;;;4.40;99.90;;;;;;4434585;28;660449;-73
2024/02/19 09:28:44;;;;;;;79.82;36.97;;;4.50;1.00;;;;;;4397673;28;659794;-73
2024/02/19 09:31:32;;;;;;;91.72;43.25;;;4.60;1.00;;;;;;4437956;28;658321;-73
2024/02/19 09:34:19;;;;;;;79.90;38.30;;;4.70;1.00;;;;;;4412056;28;659380;-73
2024/02/19 09:37:06;;;;;;;72.03;36.33;;;4.80;1.00;;;;;;4438193;28;658921;-72
2024/02/19 09:39:58;;;;;;;77.37;36.70;;;4.90;1.00;;;;;;4407059;28;658801;-73
2024/02/19 09:42:47;;;;;;;66.50;33.77;;;4.90;1.00;;;;;;4403585;28;659536;-73
2024/02/19 09:45:36;;;;;;;69.97;34.80;;;4.90;1.00;;;;;;4396312;28;658571;-73
2024/02/19 09:48:23;;;;;;;72.33;35.23;;;5.00;1.00;;;;;;4413097;28;658875;-73
2024/02/19 09:51:10;;;;;;;79.57;38.07;;;5.10;1.00;;;;;;4435052;28;658792;-73
2024/02/19 09:53:57;;;;;;;80.73;38.17;;;5.20;1.00;;;;;;4397371;28;659307;-73
2024/02/19 09:56:45;;;;;;;67.80;33.57;;;5.40;99.90;;;;;;4424065;28;659074;-73
2024/02/19 09:59:34;;;;;;;73.10;33.87;;;5.60;99.90;;;;;;4401703;28;660683;-73
2024/02/19 10:02:21;;;;;;;61.33;29.17;;;5.70;99.90;;;;;;4426754;28;659808;-73
2024/02/19 10:05:11;;;;;;;57.83;28.57;;;5.90;1.00;;;;;;4413722;28;659786;-73
2024/02/19 10:08:03;;;;;;;52.50;25.83;;;6.00;1.00;;;;;;4413443;28;658908;-73
2024/02/19 10:10:55;;;;;;;55.30;24.95;;;6.20;99.90;;;;;;4416799;28;659321;-73
2024/02/19 10:13:43;;;;;;;59.20;27.30;;;6.20;1.00;;;;;;4413803;28;659450;-74
2024/02/19 10:16:32;;;;;;;47.23;23.10;;;6.40;35.40;;;;;;4415876;28;660130;-73
2024/02/19 10:19:19;;;;;;;46.03;22.77;;;6.40;1.00;;;;;;4403625;28;660390;-73
2024/02/19 10:22:07;;;;;;;47.63;23.10;;;6.60;1.00;;;;;;4435530;28;658998;-73
2024/02/19 10:24:55;;;;;;;50.17;23.80;;;6.90;1.00;;;;;;4408095;28;659135;-73
2024/02/19 10:27:44;;;;;;;50.53;24.10;;;7.10;99.90;;;;;;4428129;28;659070;-74
2024/02/19 10:30:31;;;;;;;49.03;25.20;;;7.30;33.70;;;;;;4398033;28;660093;-73
2024/02/19 10:33:19;;;;;;;56.30;25.50;;;7.50;99.90;;;;;;4416330;28;659926;-73
2024/02/19 10:36:07;;;;;;;53.07;26.13;;;7.60;1.00;;;;;;4436168;28;659335;-73
2024/02/19 10:38:54;;;;;;;53.70;24.77;;;7.70;1.00;;;;;;4406780;28;659658;-73
2024/02/19 10:41:41;;;;;;;57.27;26.83;;;7.70;99.90;;;;;;4427360;28;659605;-74
2024/02/19 10:44:29;;;;;;;56.07;26.00;;;7.80;1.00;;;;;;4412353;28;659508;-74
2024/02/19 10:47:16;;;;;;;54.27;27.37;;;7.80;99.90;;;;;;4429710;28;659339;-73
2024/02/19 10:50:08;;;;;;;52.73;24.60;;;7.60;6.20;;;;;;4412888;28;659740;-73
2024/02/19 10:52:56;;;;;;;55.57;26.33;;;7.40;1.00;;;;;;4411745;28;659499;-73
2024/02/19 10:55:44;;;;;;;53.87;25.13;;;7.20;1.00;;;;;;4410918;28;658549;-73
2024/02/19 10:58:31;;;;;;;63.73;28.53;;;7.20;1.00;;;;;;4429388;28;658846;-73
2024/02/19 11:01:18;;;;;;;55.43;26.40;;;7.00;3.40;;;;;;4415893;28;658844;-74
2024/02/19 11:04:12;;;;;;;53.27;26.07;;;7.00;99.90;;;;;;4435602;28;659564;-73
2024/02/19 11:07:02;;;;;;;53.50;25.83;;;6.90;99.90;;;;;;4409199;28;660064;-73
2024/02/19 11:09:57;;;;;;;55.17;26.33;;;6.80;99.90;;;;;;4387182;28;659942;-73
2024/02/19 11:12:45;;;;;;;44.27;22.43;;;6.80;1.00;;;;;;4408068;28;659816;-73
2024/02/19 11:15:32;;;;;;;22.00;10.90;;;6.80;1.00;;;;;;4421204;28;659701;-73
2024/02/19 11:18:20;;;;;;;11.53;5.07;;;7.10;99.90;;;;;;4414108;28;659272;-73
2024/02/19 11:21:09;;;;;;;13.88;6.53;;;7.20;1.00;;;;;;4400281;28;658426;-73
2024/02/19 11:23:58;;;;;;;14.33;8.20;;;7.40;99.90;;;;;;4432351;28;657574;-72
2024/02/19 11:26:45;;;;;;;6.30;3.60;;;7.70;28.50;;;;;;4409762;28;658949;-73
2024/02/19 11:29:33;;;;;;;10.47;5.83;;;7.90;1.00;;;;;;4409006;28;657588;-73
2024/02/19 11:32:21;;;;;;;7.77;4.50;;;7.90;4.50;;;;;;4425118;28;657626;-72
2024/02/19 11:35:13;;;;;;;6.93;2.63;;;8.00;1.00;;;;;;4409845;28;656788;-73
2024/02/19 11:38:00;;;;;;;8.70;4.53;;;8.00;99.90;;;;;;4407711;28;656900;-73
2024/02/19 11:40:49;;;;;;;5.93;3.80;;;8.00;1.00;;;;;;4419975;28;657904;-73
2024/02/19 11:43:38;;;;;;;2.63;1.55;;;8.00;99.90;;;;;;4421515;28;656892;-73
2024/02/19 11:46:25;;;;;;;7.27;4.27;;;8.10;99.90;;;;;;4411182;28;658308;-72
2024/02/19 11:49:14;;;;;;;5.85;3.40;;;8.00;99.90;;;;;;4400873;28;657870;-73
2024/02/19 11:52:01;;;;;;;4.10;2.40;;;8.10;99.90;;;;;;4430145;28;658203;-73
2024/02/19 11:54:53;;;;;;;6.43;3.27;;;8.10;99.90;;;;;;4413172;28;657728;-72
2024/02/19 11:57:45;;;;;;;8.80;4.00;;;8.10;99.90;;;;;;4407419;28;658595;-71
2024/02/19 12:00:32;;;;;;;6.37;4.60;;;8.00;99.90;;;;;;4424958;28;658011;-73
2024/02/19 12:03:20;;;;;;;7.97;3.43;;;7.90;1.00;;;;;;4420874;28;657931;-73
2024/02/19 12:06:09;;;;;;;5.17;2.90;;;7.80;1.00;;;;;;4421123;28;656531;-72
2024/02/19 12:08:56;;;;;;;10.30;4.87;;;7.80;1.00;;;;;;4433121;28;657600;-73
2024/02/19 12:11:45;;;;;;;7.43;3.97;;;7.80;1.00;;;;;;4408254;28;657912;-73
2024/02/19 12:14:34;;;;;;;9.00;4.93;;;7.80;1.00;;;;;;4419085;28;657103;-73
2024/02/19 12:17:22;;;;;;;5.33;2.73;;;7.80;1.00;;;;;;4437598;28;657070;-73
2024/02/19 12:20:10;;;;;;;5.83;2.20;;;7.90;1.00;;;;;;4418505;28;656476;-73
2024/02/19 12:22:58;;;;;;;11.77;6.60;;;7.90;1.00;;;;;;4401056;28;656398;-74
2024/02/19 12:25:45;;;;;;;9.77;5.30;;;7.90;1.00;;;;;;4434768;28;658831;-73
2024/02/19 12:28:33;;;;;;;9.33;4.30;;;7.90;1.00;;;;;;4428669;28;656249;-73
2024/02/19 12:31:21;;;;;;;10.97;5.97;;;8.00;1.00;;;;;;4438033;28;657701;-73
2024/02/19 12:34:09;;;;;;;11.07;6.10;;;8.00;1.00;;;;;;4415725;28;658024;-73
2024/02/19 12:36:56;;;;;;;7.30;4.73;;;8.00;1.00;;;;;;4435854;28;657685;-73
2024/02/19 12:39:43;;;;;;;10.77;5.23;;;7.90;1.00;;;;;;4414955;28;657096;-74
2024/02/19 12:42:30;;;;;;;6.13;3.23;;;8.00;1.00;;;;;;4436054;28;658055;-74
2024/02/19 12:45:18;;;;;;;10.77;6.40;;;8.00;1.00;;;;;;4415171;28;657503;-74
2024/02/19 12:48:07;;;;;;;7.30;3.63;;;7.90;1.00;;;;;;4429958;28;657991;-73
2024/02/19 12:50:55;;;;;;;10.27;5.35;;;7.90;1.00;;;;;;4416693;28;656941;-73
2024/02/19 12:53:43;;;;;;;7.77;3.53;;;7.90;1.00;;;;;;4432102;28;658030;-73
2024/02/19 12:56:31;;;;;;;3.93;2.37;;;7.90;1.00;;;;;;4421019;28;658091;-73
2024/02/19 12:59:18;;;;;;;10.13;6.40;;;7.90;1.00;;;;;;4416676;28;657674;-73
2024/02/19 13:02:06;;;;;;;9.70;6.53;;;7.80;99.90;;;;;;4436310;28;657398;-73
2024/02/19 13:04:55;;;;;;;12.03;6.40;;;7.70;99.90;;;;;;4415788;28;658233;-73
2024/02/19 13:07:43;;;;;;;8.40;4.15;;;7.70;1.00;;;;;;4404836;28;659702;-73
2024/02/19 13:10:31;;;;;;;10.60;6.60;;;7.60;1.00;;;;;;4444832;28;656586;-73
2024/02/19 13:13:18;;;;;;;11.67;7.70;;;7.50;1.00;;;;;;4403213;28;657376;-73
2024/02/19 13:16:07;;;;;;;3.00;1.97;;;7.40;1.00;;;;;;4435454;28;658942;-73
2024/02/19 13:18:55;;;;;;;8.80;5.00;;;7.40;1.00;;;;;;4414638;28;657851;-74
2024/02/19 13:21:44;;;;;;;13.20;7.37;;;7.40;93.30;;;;;;4422694;28;656795;-74
2024/02/19 13:24:31;;;;;;;11.37;6.67;;;7.30;1.00;;;;;;4437240;28;658899;-74
2024/02/19 13:27:18;;;;;;;16.33;10.20;;;7.20;1.00;;;;;;4413194;28;657663;-74
2024/02/19 13:30:07;;;;;;;17.20;10.17;;;7.10;1.00;;;;;;4430519;28;659389;-75
2024/02/19 13:32:55;;;;;;;10.90;6.20;;;7.00;99.90;;;;;;4410434;28;658552;-74
2024/02/19 13:35:43;;;;;;;23.30;15.17;;;7.00;1.00;;;;;;4430724;28;658985;-74
2024/02/19 13:38:31;;;;;;;24.23;15.27;;;7.00;1.00;;;;;;4433173;28;659170;-74
2024/02/19 13:41:19;;;;;;;15.10;6.97;;;6.90;26.10;;;;;;4407854;28;658214;-74
2024/02/19 13:44:06;;;;;;;22.47;14.50;;;6.90;75.70;;;;;;4404997;28;658287;-75
2024/02/19 13:46:54;;;;;;;22.50;13.57;;;6.90;1.00;;;;;;4393617;28;659515;-75
2024/02/19 13:49:41;;;;;;;20.00;10.23;;;6.90;99.90;;;;;;4422098;28;659187;-75
2024/02/19 13:52:28;;;;;;;20.47;11.57;;;6.90;99.90;;;;;;4382771;28;659891;-74
2024/02/19 13:55:17;;;;;;;12.70;7.33;;;6.80;1.00;;;;;;4411241;28;662142;-74
2024/02/19 13:58:04;;;;;;;11.87;7.30;;;6.80;1.00;;;;;;4389847;28;658082;-74
2024/02/19 14:00:53;;;;;;;13.13;7.57;;;6.80;1.00;;;;;;4421100;28;657908;-75
2024/02/19 14:03:40;;;;;;;12.30;6.93;;;6.80;99.90;;;;;;4377406;28;658038;-74
2024/02/19 14:06:28;;;;;;;15.15;8.10;;;6.80;1.00;;;;;;4393068;28;658659;-75
2024/02/19 14:09:16;;;;;;;10.63;5.80;;;6.80;1.00;;;;;;4415616;28;658164;-75
2024/02/19 14:12:05;;;;;;;10.17;4.90;;;6.80;57.00;;;;;;4399746;28;658057;-75
2024/02/19 14:14:52;;;;;;;12.57;6.20;;;6.60;99.90;;;;;;4397839;28;659179;-75
2024/02/19 14:17:40;;;;;;;12.93;7.87;;;6.60;99.90;;;;;;4415170;28;659670;-75